Zprávy METAR z letišť v České republice

LKPR - Praha Ruzyně, Česká republika
Vzdálenost od této stanice: ZJZ 98km
Aktualizováno: 19.07.2018 09:00
 
Teplota vzduchu: 21°C
Vítr: SZ 15 km/h
Rosný bod: 12°C
Vlhkost vzduchu: 57%
Tlak vzduchu: 1017 hPa
Stav počasí: Jasno
Oblačnost: jasná obloha
Viditelnost: více než 10 km
2018/07/19 07:00 LKPR 190700Z 31008KT 280V350 CAVOK 21/12 Q1017 NOSIG
LKKB - Praha Kbely, Česká republika
Vzdálenost od této stanice: ZJZ 81km
Aktualizováno: 19.07.2018 09:00
 
Teplota vzduchu: 20°C
Vítr: ZSZ 17 km/h
Rosný bod: 12°C
Vlhkost vzduchu: 60%
Tlak vzduchu: 1016 hPa
Stav počasí: Jasno
Oblačnost: jasná obloha
Viditelnost: více než 10 km
2018/07/19 07:00 LKKB 190700Z 29009KT CAVOK 20/12 Q1016 NOSIG
 
LKVO - Vodochody, Česká republika
Vzdálenost od této stanice: ZJZ 84km
Aktualizováno: 18.07.2018 16:00
Není aktuální
 
Teplota vzduchu: 28°C
Vítr: SZ 24 km/h
Rosný bod: 10°C
Vlhkost vzduchu: 32%
Tlak vzduchu: 1014 hPa
Stav počasí: Jasno
Oblačnost: jasná obloha
Viditelnost: více než 10 km
2018/07/18 14:00 LKVO 181400Z 32013KT 270V020 CAVOK 28/10 Q1014
LKPD - Pardubice, Česká republika
Vzdálenost od této stanice: JJV 56km
Aktualizováno: 19.07.2018 09:00
 
Teplota vzduchu: 19°C
Vítr: Z 15 km/h
Rosný bod: 12°C
Vlhkost vzduchu: 64%
Tlak vzduchu: 1015 hPa
Stav počasí: Jasno
Oblačnost: jasná obloha
Viditelnost: více než 10 km
2018/07/19 07:00 LKPD 190700Z 28008KT CAVOK 19/12 Q1015 NOSIG RMK BLU BLU
 
LKCV - Čáslav, Česká republika
Vzdálenost od této stanice: J 63km
Aktualizováno: 19.07.2018 09:00
 
Teplota vzduchu: 21°C
Vítr: ZSZ 22 km/h
Rosný bod: 13°C
Vlhkost vzduchu: 60%
Tlak vzduchu: 1015 hPa
Stav počasí: Jasno
Oblačnost: jasná obloha
Viditelnost: více než 10 km
2018/07/19 07:00 LKCV 190700Z 29012KT CAVOK 21/13 Q1015 NOSIG RMK BLU BLU
LKLB - Liberec, Česká republika
Vzdálenost od této stanice: SZ 45km
Aktualizováno: 02.01.2013 07:02
Není aktuální
 
Teplota vzduchu: -1°C
Vítr: JJV 6 km/h
Rosný bod: -2°C
Vlhkost vzduchu: 93%
Tlak vzduchu: 1016 hPa
Oblačnost: skoro zataženo
Viditelnost: 10 km
Detaily oblačnosti: skoro jasno 488 m
skoro zataženo 1311 m
2013/01/02 06:02 LKLB 020602Z 16003KT 9999 FEW016 BKN043 M01/M02 Q1016
 
LKKU - Kunovice, Česká republika
Vzdálenost od této stanice: JV 213km
Aktualizováno: 19.07.2018 09:00
 
Teplota vzduchu: 21°C
Vítr: S 7 km/h
Rosný bod: 16°C
Vlhkost vzduchu: 73%
Tlak vzduchu: 1013 hPa
Oblačnost: skoro zataženo
Viditelnost: 10 km
Detaily oblačnosti: skoro zataženo 1158 m
2018/07/19 07:00 LKKU 190700Z 35004KT 9999 BKN038 21/16 Q1013
LKTB - Brno Tuřany, Česká republika
Vzdálenost od této stanice: JJV 174km
Aktualizováno: 19.07.2018 09:00
 
Teplota vzduchu: 21°C
Vítr: SZ 17 km/h
Rosný bod: 14°C
Vlhkost vzduchu: 64%
Tlak vzduchu: 1014 hPa
Oblačnost: skoro jasno
Viditelnost: 10 km
Detaily oblačnosti: skoro jasno 914 m
2018/07/19 07:00 LKTB 190700Z 31009KT 9999 FEW030 21/14 Q1014 NOSIG
 
LKKV - Karlovy Vary, Česká republika
Vzdálenost od této stanice: Z 187km
Aktualizováno: 19.07.2018 09:00
 
Teplota vzduchu: 18°C
Vítr: ZSZ 9 km/h
Rosný bod: 10°C
Vlhkost vzduchu: 60%
Tlak vzduchu: 1018 hPa
Oblačnost: skoro jasno
Viditelnost: 10 km
Detaily oblačnosti: skoro jasno 792 m
2018/07/19 07:00 LKKV 190700Z 29005KT 260V320 9999 FEW026 18/10 Q1018
LKMT - Ostrava Mošnov, Česká republika
Vzdálenost od této stanice: VJV 208km
Aktualizováno: 19.07.2018 09:00
 
Teplota vzduchu: 17°C
Vítr: S 9 km/h
Rosný bod: 14°C
Vlhkost vzduchu: 83%
Tlak vzduchu: 1013 hPa
Oblačnost: zataženo
Viditelnost: 10 km
Detaily oblačnosti: skoro zataženo 518 m
zataženo 701 m
2018/07/19 07:00 LKMT 190700Z 35005KT 320V030 9999 BKN017 OVC023 17/14 Q1013 NOSIG
 
LKNA - Náměšť n. Osl., Česká republika
Vzdálenost od této stanice: JJV 154km
Aktualizováno: 19.07.2018 09:00
 
Teplota vzduchu: 20°C
Vítr: SZ 30 km/h
Rosný bod: 12°C
Vlhkost vzduchu: 60%
Tlak vzduchu: 1015 hPa
Oblačnost: skoro zataženo
Viditelnost: 10 km
Detaily oblačnosti: skoro jasno 945 m
skoro zataženo 3658 m
2018/07/19 07:00 LKNA 190700Z 31016KT 9999 FEW031 BKN120 20/12 Q1015 NOSIG RMK BLU BLU
LKLN - Plzeň Líně, Česká republika
Vzdálenost od této stanice: ZJZ 184km
Aktualizováno: 17.07.2018 11:00
Není aktuální
 
Teplota vzduchu: 25°C
Vítr: proměnlivý 7 km/h
Rosný bod: 10°C
Vlhkost vzduchu: 39%
Tlak vzduchu: 1013 hPa
Oblačnost: oblačno
Viditelnost: 10 km
Detaily oblačnosti: oblačno 2012 m
oblačno 2316 m
2018/07/17 09:00 LKLN 170900Z AUTO VRB04KT 9999 SCT066 SCT076 25/10 Q1013
 
EDDC - Dresden/Klotzsche, Německo
Vzdálenost od této stanice: NNW 107km
Aktualizováno: 19.07.2018 08:50
 
Teplota vzduchu: 19°C
Vítr: ZSZ 13 km/h
Rosný bod: 12°C
Vlhkost vzduchu: 64%
Tlak vzduchu: 1017 hPa
Stav počasí: Jasno
Oblačnost: jasná obloha
Viditelnost: více než 10 km
2018/07/19 06:50 EDDC 190650Z 30007KT 250V350 CAVOK 19/12 Q1017 NOSIG
EDAC - Altenburg-Nobitz, Německo
Vzdálenost od této stanice: WNW 159km
Aktualizováno: 19.07.2018 08:50
 
Teplota vzduchu: 18°C
Vítr: SZ 11 km/h
Rosný bod: 11°C
Vlhkost vzduchu: 64%
Tlak vzduchu: 1018 hPa
Stav počasí: Jasno
Oblačnost: jasná obloha
Viditelnost: více než 10 km
2018/07/19 06:50 EDAC 190650Z 31006KT 280V350 CAVOK 18/11 Q1018
 
EDQM - Hof, Německo
Vzdálenost od této stanice: W 187km
Aktualizováno: 19.07.2018 08:50
 
Teplota vzduchu: 17°C
Vítr: S 9 km/h
Rosný bod: 7°C
Vlhkost vzduchu: 52%
Tlak vzduchu: 1019 hPa
Stav počasí: Jasno
Oblačnost: jasná obloha
Viditelnost: více než 10 km
2018/07/19 06:50 EDQM 190650Z 36005KT 300V060 CAVOK 17/07 Q1019
ETSH - Holzdorf, Německo
Vzdálenost od této stanice: NNW 188km
Aktualizováno: 19.07.2018 08:20
 
Teplota vzduchu: 19°C
Vítr: Z 11 km/h
Rosný bod: 13°C
Vlhkost vzduchu: 68%
Tlak vzduchu: 1017 hPa
Oblačnost: skoro jasno
Viditelnost: 10 km
Detaily oblačnosti: skoro jasno 732 m
2018/07/19 06:20 ETSH 190620Z 28006KT 9999 FEW024 19/13 Q1017 BLU+BLU+
 
EPWR - Wroclaw Strachowice, Polsko
Vzdálenost od této stanice: ENE 191km
Aktualizováno: 19.07.2018 09:00
 
Teplota vzduchu: 19°C
Vítr: ZSZ 28 km/h
Rosný bod: 16°C
Vlhkost vzduchu: 83%
Tlak vzduchu: 1013 hPa
Oblačnost: skoro zataženo
Viditelnost: 10 km
Detaily oblačnosti: skoro zataženo 366 m
2018/07/19 07:00 EPWR 190700Z 29015KT 9999 BKN012 19/16 Q1013
ETIC - Grafenwöhr, Německo
Vzdálenost od této stanice: WSW 194km
Aktualizováno: 19.07.2018 08:56
 
Teplota vzduchu: 18°C
Vítr: bezvětří
Rosný bod: 11°C
Vlhkost vzduchu: 64%
Tlak vzduchu: 1018.3 hPa
Oblačnost: jasno
Viditelnost: 10 km
2018/07/19 06:56 ETIC 190656Z AUTO 00000KT 9999 CLR 18/11 A3007 RMK AO2 SLP169 T01790105 TSNO $
 
EDDP - Liepzig/Schkeuditz, Německo
Vzdálenost od této stanice: NW 202km
Aktualizováno: 19.07.2018 08:50
 
Teplota vzduchu: 19°C
Vítr: SZ 15 km/h
Rosný bod: 12°C
Vlhkost vzduchu: 64%
Tlak vzduchu: 1018 hPa
Stav počasí: Jasno
Oblačnost: jasná obloha
Viditelnost: více než 10 km
2018/07/19 06:50 EDDP 190650Z 31008KT 270V350 CAVOK 19/12 Q1018 NOSIG
EPZG - Zielena Gora, Polsko
Vzdálenost od této stanice: NNE 224km
Aktualizováno: 19.07.2018 09:00
 
Teplota vzduchu: 18°C
Vítr: Z 15 km/h
Rosný bod: 17°C
Vlhkost vzduchu: 94%
Tlak vzduchu: 1013 hPa
Stav počasí: Mírnější mrholení, Opar
Oblačnost: zataženo
Viditelnost: 3 km
Detaily oblačnosti: skoro zataženo 305 m
zataženo 457 m
2018/07/19 07:00 EPZG 190700Z 27008KT 240V300 2500 -DZ BR BKN010 OVC015 18/17 Q1013
 
ETIH - Hohenfels U.S. Army Garrison Bavaria, Německo
Vzdálenost od této stanice: WSW 226km
Aktualizováno: 19.07.2018 08:56
 
Teplota vzduchu: 20°C
Vítr: S 6 km/h
Rosný bod: 12°C
Vlhkost vzduchu: 60%
Tlak vzduchu: 1019 hPa
Oblačnost: jasno
Viditelnost: 10 km
2018/07/19 06:56 ETIH 190656Z AUTO 35003KT 9999 CLR 20/12 A3009 RMK AO2 SLP173 T01990121 $
LOWL - Linz (CIV/MIL), Rakousko
Vzdálenost od této stanice: S 232km
Aktualizováno: 19.07.2018 08:50
 
Teplota vzduchu: 21°C
Vítr: SZ 11 km/h
Rosný bod: 10°C
Vlhkost vzduchu: 50%
Tlak vzduchu: 1017 hPa
Stav počasí: Jasno
Oblačnost: jasná obloha
Viditelnost: více než 10 km
2018/07/19 06:50 LOWL 190650Z 31006KT CAVOK 21/10 Q1017 NOSIG
 
EDDB - Berlin/Schönefeld, Německo
Vzdálenost od této stanice: NNW 242km
Aktualizováno: 19.07.2018 08:50
 
Teplota vzduchu: 21°C
Vítr: SZ 19 km/h
Rosný bod: 15°C
Vlhkost vzduchu: 69%
Tlak vzduchu: 1016 hPa
Oblačnost: skoro jasno
Viditelnost: 10 km
Detaily oblačnosti: skoro jasno 488 m
2018/07/19 06:50 EDDB 190650Z 32010KT 9999 FEW016 21/15 Q1016 NOSIG

Metar display script od Saratoga-Weather.org
upravil a přeložil Miloš Jiřík